sensor_id;sensor_type;location;lat;lon;timestamp;temperature;humidity
2174;DHT22;1093;51.424;11.764;2022-08-01T00:01:33;20.40;1.40
2174;DHT22;1093;51.424;11.764;2022-08-01T00:04:00;20.40;1.40
2174;DHT22;1093;51.424;11.764;2022-08-01T00:06:29;20.30;1.40
2174;DHT22;1093;51.424;11.764;2022-08-01T00:08:55;20.40;1.40
2174;DHT22;1093;51.424;11.764;2022-08-01T00:11:22;20.30;1.40
2174;DHT22;1093;51.424;11.764;2022-08-01T00:13:49;20.30;1.40
2174;DHT22;1093;51.424;11.764;2022-08-01T00:16:16;20.30;1.40
2174;DHT22;1093;51.424;11.764;2022-08-01T00:18:43;20.30;1.40
2174;DHT22;1093;51.424;11.764;2022-08-01T00:21:10;20.30;1.40
2174;DHT22;1093;51.424;11.764;2022-08-01T00:23:38;20.30;1.40
2174;DHT22;1093;51.424;11.764;2022-08-01T00:26:08;20.30;1.40
2174;DHT22;1093;51.424;11.764;2022-08-01T00:28:35;20.30;1.40
2174;DHT22;1093;51.424;11.764;2022-08-01T00:31:01;20.30;1.40
2174;DHT22;1093;51.424;11.764;2022-08-01T00:33:28;20.30;1.40
2174;DHT22;1093;51.424;11.764;2022-08-01T00:35:55;20.30;1.40
2174;DHT22;1093;51.424;11.764;2022-08-01T00:38:22;20.30;1.40
2174;DHT22;1093;51.424;11.764;2022-08-01T00:40:50;20.30;1.40
2174;DHT22;1093;51.424;11.764;2022-08-01T00:43:17;20.20;1.40
2174;DHT22;1093;51.424;11.764;2022-08-01T00:45:44;20.20;1.40
2174;DHT22;1093;51.424;11.764;2022-08-01T00:48:11;20.20;1.40
2174;DHT22;1093;51.424;11.764;2022-08-01T00:50:38;20.20;1.40
2174;DHT22;1093;51.424;11.764;2022-08-01T00:53:05;20.20;1.40
2174;DHT22;1093;51.424;11.764;2022-08-01T00:55:32;20.10;1.40
2174;DHT22;1093;51.424;11.764;2022-08-01T00:58:01;20.10;1.40
2174;DHT22;1093;51.424;11.764;2022-08-01T01:00:28;20.10;1.40
2174;DHT22;1093;51.424;11.764;2022-08-01T01:02:54;20.10;1.40
2174;DHT22;1093;51.424;11.764;2022-08-01T01:05:21;20.00;1.40
2174;DHT22;1093;51.424;11.764;2022-08-01T01:07:53;20.10;1.40
2174;DHT22;1093;51.424;11.764;2022-08-01T01:10:24;20.10;1.40
2174;DHT22;1093;51.424;11.764;2022-08-01T01:13:02;20.10;1.40
2174;DHT22;1093;51.424;11.764;2022-08-01T01:15:36;20.10;1.40
2174;DHT22;1093;51.424;11.764;2022-08-01T01:18:09;20.20;1.40
2174;DHT22;1093;51.424;11.764;2022-08-01T01:20:41;20.20;1.40
2174;DHT22;1093;51.424;11.764;2022-08-01T01:23:32;20.20;1.40
2174;DHT22;1093;51.424;11.764;2022-08-01T01:26:21;20.20;1.40
2174;DHT22;1093;51.424;11.764;2022-08-01T01:29:11;20.20;1.40
2174;DHT22;1093;51.424;11.764;2022-08-01T01:31:43;20.20;1.40
2174;DHT22;1093;51.424;11.764;2022-08-01T01:34:13;20.20;1.40
2174;DHT22;1093;51.424;11.764;2022-08-01T01:36:42;20.10;1.40
2174;DHT22;1093;51.424;11.764;2022-08-01T01:39:10;20.10;1.40
2174;DHT22;1093;51.424;11.764;2022-08-01T01:41:38;20.10;1.40
2174;DHT22;1093;51.424;11.764;2022-08-01T01:44:06;20.10;1.40
2174;DHT22;1093;51.424;11.764;2022-08-01T01:46:36;20.00;1.40
2174;DHT22;1093;51.424;11.764;2022-08-01T01:49:03;20.00;1.40
2174;DHT22;1093;51.424;11.764;2022-08-01T01:51:31;20.00;1.40
2174;DHT22;1093;51.424;11.764;2022-08-01T01:53:59;20.00;1.40
2174;DHT22;1093;51.424;11.764;2022-08-01T01:56:28;20.00;1.40
2174;DHT22;1093;51.424;11.764;2022-08-01T01:58:59;20.00;1.40
2174;DHT22;1093;51.424;11.764;2022-08-01T02:01:29;20.00;1.40
2174;DHT22;1093;51.424;11.764;2022-08-01T02:04:00;20.00;1.40
2174;DHT22;1093;51.424;11.764;2022-08-01T02:06:29;20.00;1.40
2174;DHT22;1093;51.424;11.764;2022-08-01T02:08:57;20.00;1.40
2174;DHT22;1093;51.424;11.764;2022-08-01T02:11:24;20.00;1.40
2174;DHT22;1093;51.424;11.764;2022-08-01T02:13:55;20.00;1.40
2174;DHT22;1093;51.424;11.764;2022-08-01T02:16:25;20.00;1.40
2174;DHT22;1093;51.424;11.764;2022-08-01T02:18:52;20.00;1.40
2174;DHT22;1093;51.424;11.764;2022-08-01T02:21:25;20.00;1.40
2174;DHT22;1093;51.424;11.764;2022-08-01T02:23:54;20.10;1.40
2174;DHT22;1093;51.424;11.764;2022-08-01T02:26:22;20.10;1.40
2174;DHT22;1093;51.424;11.764;2022-08-01T02:28:53;20.10;1.40
2174;DHT22;1093;51.424;11.764;2022-08-01T02:31:22;20.20;1.40
2174;DHT22;1093;51.424;11.764;2022-08-01T02:33:54;20.20;1.40
2174;DHT22;1093;51.424;11.764;2022-08-01T02:36:25;20.20;1.40
2174;DHT22;1093;51.424;11.764;2022-08-01T02:38:54;20.20;1.40
2174;DHT22;1093;51.424;11.764;2022-08-01T02:41:23;20.20;1.40
2174;DHT22;1093;51.424;11.764;2022-08-01T02:43:57;20.20;1.40
2174;DHT22;1093;51.424;11.764;2022-08-01T02:46:29;20.10;1.40
2174;DHT22;1093;51.424;11.764;2022-08-01T02:49:00;20.20;1.40
2174;DHT22;1093;51.424;11.764;2022-08-01T02:51:31;20.20;1.40
2174;DHT22;1093;51.424;11.764;2022-08-01T02:53:59;20.20;1.40
2174;DHT22;1093;51.424;11.764;2022-08-01T02:56:29;20.20;1.40
2174;DHT22;1093;51.424;11.764;2022-08-01T02:59:02;20.20;1.40
2174;DHT22;1093;51.424;11.764;2022-08-01T03:01:32;20.20;1.40
2174;DHT22;1093;51.424;11.764;2022-08-01T03:04:00;20.20;1.40
2174;DHT22;1093;51.424;11.764;2022-08-01T03:06:30;20.20;1.40
2174;DHT22;1093;51.424;11.764;2022-08-01T03:08:58;20.20;1.40
2174;DHT22;1093;51.424;11.764;2022-08-01T03:11:27;20.30;1.40
2174;DHT22;1093;51.424;11.764;2022-08-01T03:13:55;20.30;1.40
2174;DHT22;1093;51.424;11.764;2022-08-01T03:16:24;20.20;1.40
2174;DHT22;1093;51.424;11.764;2022-08-01T03:18:54;20.20;1.40
2174;DHT22;1093;51.424;11.764;2022-08-01T03:21:24;20.20;1.40
2174;DHT22;1093;51.424;11.764;2022-08-01T03:23:53;20.20;1.40
2174;DHT22;1093;51.424;11.764;2022-08-01T03:26:24;20.20;1.40
2174;DHT22;1093;51.424;11.764;2022-08-01T03:28:55;20.20;1.40
2174;DHT22;1093;51.424;11.764;2022-08-01T03:31:23;20.20;1.40
2174;DHT22;1093;51.424;11.764;2022-08-01T03:33:51;20.20;1.40
2174;DHT22;1093;51.424;11.764;2022-08-01T03:36:21;20.30;1.40
2174;DHT22;1093;51.424;11.764;2022-08-01T03:38:53;20.20;1.40
2174;DHT22;1093;51.424;11.764;2022-08-01T03:41:24;20.20;1.40
2174;DHT22;1093;51.424;11.764;2022-08-01T03:43:56;20.20;1.40
2174;DHT22;1093;51.424;11.764;2022-08-01T03:46:26;20.30;1.40
2174;DHT22;1093;51.424;11.764;2022-08-01T03:48:55;20.30;1.40
2174;DHT22;1093;51.424;11.764;2022-08-01T03:51:25;20.30;1.40
2174;DHT22;1093;51.424;11.764;2022-08-01T03:53:54;20.20;1.40
2174;DHT22;1093;51.424;11.764;2022-08-01T03:56:23;20.20;1.40
2174;DHT22;1093;51.424;11.764;2022-08-01T03:58:50;20.20;1.40
2174;DHT22;1093;51.424;11.764;2022-08-01T04:01:18;20.10;1.40
2174;DHT22;1093;51.424;11.764;2022-08-01T04:03:45;20.10;1.40
2174;DHT22;1093;51.424;11.764;2022-08-01T04:06:12;20.10;1.40
2174;DHT22;1093;51.424;11.764;2022-08-01T04:08:40;20.00;1.40
2174;DHT22;1093;51.424;11.764;2022-08-01T04:11:09;20.00;1.40
2174;DHT22;1093;51.424;11.764;2022-08-01T04:13:36;20.10;1.40
2174;DHT22;1093;51.424;11.764;2022-08-01T04:16:03;20.10;1.40
2174;DHT22;1093;51.424;11.764;2022-08-01T04:18:30;20.00;1.40
2174;DHT22;1093;51.424;11.764;2022-08-01T04:20:57;20.00;1.40
2174;DHT22;1093;51.424;11.764;2022-08-01T04:23:25;20.10;1.40
2174;DHT22;1093;51.424;11.764;2022-08-01T04:25:54;20.10;1.40
2174;DHT22;1093;51.424;11.764;2022-08-01T04:28:23;20.10;1.40
2174;DHT22;1093;51.424;11.764;2022-08-01T04:30:54;20.10;1.40
2174;DHT22;1093;51.424;11.764;2022-08-01T04:33:22;20.10;1.40
2174;DHT22;1093;51.424;11.764;2022-08-01T04:35:50;20.00;1.40
2174;DHT22;1093;51.424;11.764;2022-08-01T04:38:20;20.00;1.40
2174;DHT22;1093;51.424;11.764;2022-08-01T04:40:48;20.10;1.40
2174;DHT22;1093;51.424;11.764;2022-08-01T04:43:16;20.10;1.40
2174;DHT22;1093;51.424;11.764;2022-08-01T04:45:46;20.20;1.40
2174;DHT22;1093;51.424;11.764;2022-08-01T04:48:16;20.20;1.40
2174;DHT22;1093;51.424;11.764;2022-08-01T04:50:45;20.20;1.40
2174;DHT22;1093;51.424;11.764;2022-08-01T04:53:13;20.20;1.40
2174;DHT22;1093;51.424;11.764;2022-08-01T04:55:42;20.30;1.40
2174;DHT22;1093;51.424;11.764;2022-08-01T04:58:09;20.30;1.40
2174;DHT22;1093;51.424;11.764;2022-08-01T05:00:36;20.40;1.40
2174;DHT22;1093;51.424;11.764;2022-08-01T05:03:04;20.50;1.40
2174;DHT22;1093;51.424;11.764;2022-08-01T05:05:31;20.50;1.40
2174;DHT22;1093;51.424;11.764;2022-08-01T05:07:58;20.50;1.40
2174;DHT22;1093;51.424;11.764;2022-08-01T05:10:25;20.50;1.40
2174;DHT22;1093;51.424;11.764;2022-08-01T05:12:52;20.50;1.40
2174;DHT22;1093;51.424;11.764;2022-08-01T05:15:19;20.50;1.40
2174;DHT22;1093;51.424;11.764;2022-08-01T05:17:46;20.50;1.40
2174;DHT22;1093;51.424;11.764;2022-08-01T05:20:15;20.50;1.40
2174;DHT22;1093;51.424;11.764;2022-08-01T05:22:42;20.50;1.40
2174;DHT22;1093;51.424;11.764;2022-08-01T05:25:09;20.50;1.40
2174;DHT22;1093;51.424;11.764;2022-08-01T05:27:35;20.50;1.40
2174;DHT22;1093;51.424;11.764;2022-08-01T05:30:06;20.50;1.40
2174;DHT22;1093;51.424;11.764;2022-08-01T05:32:33;20.40;1.40
2174;DHT22;1093;51.424;11.764;2022-08-01T05:35:00;20.50;1.40
2174;DHT22;1093;51.424;11.764;2022-08-01T05:37:28;20.50;1.40
2174;DHT22;1093;51.424;11.764;2022-08-01T05:39:54;20.50;1.40
2174;DHT22;1093;51.424;11.764;2022-08-01T05:42:21;20.50;1.40
2174;DHT22;1093;51.424;11.764;2022-08-01T05:44:48;20.50;1.40
2174;DHT22;1093;51.424;11.764;2022-08-01T05:47:16;20.50;1.40
2174;DHT22;1093;51.424;11.764;2022-08-01T05:49:42;20.60;1.40
2174;DHT22;1093;51.424;11.764;2022-08-01T05:52:10;20.60;1.40
2174;DHT22;1093;51.424;11.764;2022-08-01T05:54:38;20.70;1.40
2174;DHT22;1093;51.424;11.764;2022-08-01T05:57:05;20.70;1.40
2174;DHT22;1093;51.424;11.764;2022-08-01T05:59:32;20.70;1.40
2174;DHT22;1093;51.424;11.764;2022-08-01T06:01:59;20.80;1.40
2174;DHT22;1093;51.424;11.764;2022-08-01T06:04:26;20.80;1.40
2174;DHT22;1093;51.424;11.764;2022-08-01T06:06:53;20.90;1.40
2174;DHT22;1093;51.424;11.764;2022-08-01T06:09:19;21.00;1.40
2174;DHT22;1093;51.424;11.764;2022-08-01T06:11:48;21.00;1.40
2174;DHT22;1093;51.424;11.764;2022-08-01T06:14:15;21.10;1.40
2174;DHT22;1093;51.424;11.764;2022-08-01T06:16:42;21.10;1.40
2174;DHT22;1093;51.424;11.764;2022-08-01T06:19:08;21.20;1.40
2174;DHT22;1093;51.424;11.764;2022-08-01T06:21:35;21.30;1.40
2174;DHT22;1093;51.424;11.764;2022-08-01T06:24:02;21.40;1.40
2174;DHT22;1093;51.424;11.764;2022-08-01T06:26:29;21.50;1.40
2174;DHT22;1093;51.424;11.764;2022-08-01T06:28:57;21.60;1.40
2174;DHT22;1093;51.424;11.764;2022-08-01T06:31:24;21.60;1.40
2174;DHT22;1093;51.424;11.764;2022-08-01T06:33:51;21.70;1.40
2174;DHT22;1093;51.424;11.764;2022-08-01T06:36:17;21.70;1.40
2174;DHT22;1093;51.424;11.764;2022-08-01T06:38:44;21.90;1.40
2174;DHT22;1093;51.424;11.764;2022-08-01T06:41:11;22.00;1.40
2174;DHT22;1093;51.424;11.764;2022-08-01T06:43:38;22.10;1.40
2174;DHT22;1093;51.424;11.764;2022-08-01T06:46:06;22.10;1.40
2174;DHT22;1093;51.424;11.764;2022-08-01T06:48:33;22.10;1.40
2174;DHT22;1093;51.424;11.764;2022-08-01T06:51:00;22.20;1.40
2174;DHT22;1093;51.424;11.764;2022-08-01T06:53:39;22.20;1.40
2174;DHT22;1093;51.424;11.764;2022-08-01T06:56:06;22.10;1.40
2174;DHT22;1093;51.424;11.764;2022-08-01T06:58:34;22.20;1.40
2174;DHT22;1093;51.424;11.764;2022-08-01T07:01:01;22.20;1.40
2174;DHT22;1093;51.424;11.764;2022-08-01T07:03:30;22.20;1.40
2174;DHT22;1093;51.424;11.764;2022-08-01T07:05:57;22.20;1.40
2174;DHT22;1093;51.424;11.764;2022-08-01T07:08:24;22.10;1.40
2174;DHT22;1093;51.424;11.764;2022-08-01T07:10:50;22.10;1.40
2174;DHT22;1093;51.424;11.764;2022-08-01T07:13:17;22.10;1.40
2174;DHT22;1093;51.424;11.764;2022-08-01T07:15:46;22.10;1.40
2174;DHT22;1093;51.424;11.764;2022-08-01T07:18:13;22.00;1.40
2174;DHT22;1093;51.424;11.764;2022-08-01T07:20:41;22.00;1.40
2174;DHT22;1093;51.424;11.764;2022-08-01T07:23:08;21.90;1.40
2174;DHT22;1093;51.424;11.764;2022-08-01T07:25:35;21.90;1.40
2174;DHT22;1093;51.424;11.764;2022-08-01T07:28:02;21.90;1.40
2174;DHT22;1093;51.424;11.764;2022-08-01T07:30:28;21.90;1.40
2174;DHT22;1093;51.424;11.764;2022-08-01T07:32:55;21.90;1.40
2174;DHT22;1093;51.424;11.764;2022-08-01T07:35:22;21.90;1.40
2174;DHT22;1093;51.424;11.764;2022-08-01T07:37:50;21.90;1.40
2174;DHT22;1093;51.424;11.764;2022-08-01T07:40:19;21.90;1.40
2174;DHT22;1093;51.424;11.764;2022-08-01T07:42:46;22.00;1.40
2174;DHT22;1093;51.424;11.764;2022-08-01T07:45:13;22.00;1.40
2174;DHT22;1093;51.424;11.764;2022-08-01T07:47:40;22.00;1.40
2174;DHT22;1093;51.424;11.764;2022-08-01T07:50:07;22.00;1.40
2174;DHT22;1093;51.424;11.764;2022-08-01T07:52:34;22.00;1.40
2174;DHT22;1093;51.424;11.764;2022-08-01T07:55:03;22.00;1.40
2174;DHT22;1093;51.424;11.764;2022-08-01T07:57:30;22.00;1.40
2174;DHT22;1093;51.424;11.764;2022-08-01T07:59:57;22.10;1.40
2174;DHT22;1093;51.424;11.764;2022-08-01T08:02:23;22.20;1.40
2174;DHT22;1093;51.424;11.764;2022-08-01T08:04:50;22.30;1.40
2174;DHT22;1093;51.424;11.764;2022-08-01T08:07:17;22.40;1.40
2174;DHT22;1093;51.424;11.764;2022-08-01T08:09:44;22.40;1.40
2174;DHT22;1093;51.424;11.764;2022-08-01T08:12:12;22.50;1.40
2174;DHT22;1093;51.424;11.764;2022-08-01T08:14:39;22.40;1.40
2174;DHT22;1093;51.424;11.764;2022-08-01T08:17:06;22.20;1.40
2174;DHT22;1093;51.424;11.764;2022-08-01T08:19:33;22.00;1.40
2174;DHT22;1093;51.424;11.764;2022-08-01T08:22:02;21.90;1.40
2174;DHT22;1093;51.424;11.764;2022-08-01T08:24:29;21.90;1.40
2174;DHT22;1093;51.424;11.764;2022-08-01T08:26:58;21.80;1.40
2174;DHT22;1093;51.424;11.764;2022-08-01T08:29:27;21.80;1.40
2174;DHT22;1093;51.424;11.764;2022-08-01T08:31:55;21.90;1.40
2174;DHT22;1093;51.424;11.764;2022-08-01T08:34:23;21.90;1.40
2174;DHT22;1093;51.424;11.764;2022-08-01T08:36:51;22.10;1.40
2174;DHT22;1093;51.424;11.764;2022-08-01T08:39:18;22.10;1.40
2174;DHT22;1093;51.424;11.764;2022-08-01T08:41:44;22.30;1.40
2174;DHT22;1093;51.424;11.764;2022-08-01T08:44:11;22.40;1.40
2174;DHT22;1093;51.424;11.764;2022-08-01T08:46:41;22.30;1.40
2174;DHT22;1093;51.424;11.764;2022-08-01T08:49:10;22.40;1.40
2174;DHT22;1093;51.424;11.764;2022-08-01T08:51:38;22.40;1.40
2174;DHT22;1093;51.424;11.764;2022-08-01T08:54:06;22.70;1.40
2174;DHT22;1093;51.424;11.764;2022-08-01T08:56:34;22.80;1.40
2174;DHT22;1093;51.424;11.764;2022-08-01T08:59:02;23.00;1.40
2174;DHT22;1093;51.424;11.764;2022-08-01T09:01:30;23.10;1.40
2174;DHT22;1093;51.424;11.764;2022-08-01T09:04:00;23.10;1.40
2174;DHT22;1093;51.424;11.764;2022-08-01T09:06:27;23.20;1.40
2174;DHT22;1093;51.424;11.764;2022-08-01T09:08:55;23.30;1.40
2174;DHT22;1093;51.424;11.764;2022-08-01T09:11:22;23.40;1.40
2174;DHT22;1093;51.424;11.764;2022-08-01T09:14:05;23.40;1.40
2174;DHT22;1093;51.424;11.764;2022-08-01T09:16:33;23.50;1.40
2174;DHT22;1093;51.424;11.764;2022-08-01T09:19:12;23.60;1.40
2174;DHT22;1093;51.424;11.764;2022-08-01T09:21:40;23.70;1.40
2174;DHT22;1093;51.424;11.764;2022-08-01T09:24:15;23.70;1.40
2174;DHT22;1093;51.424;11.764;2022-08-01T09:26:42;23.90;1.40
2174;DHT22;1093;51.424;11.764;2022-08-01T09:29:18;23.90;1.40
2174;DHT22;1093;51.424;11.764;2022-08-01T09:31:45;24.10;1.40
2174;DHT22;1093;51.424;11.764;2022-08-01T09:34:15;24.20;1.40
2174;DHT22;1093;51.424;11.764;2022-08-01T09:36:47;24.40;1.40
2174;DHT22;1093;51.424;11.764;2022-08-01T09:39:26;24.60;1.40
2174;DHT22;1093;51.424;11.764;2022-08-01T09:41:54;24.90;1.40
2174;DHT22;1093;51.424;11.764;2022-08-01T09:44:37;25.10;1.40
2174;DHT22;1093;51.424;11.764;2022-08-01T09:47:04;25.20;1.40
2174;DHT22;1093;51.424;11.764;2022-08-01T09:49:34;25.20;1.40
2174;DHT22;1093;51.424;11.764;2022-08-01T09:52:11;25.40;1.40
2174;DHT22;1093;51.424;11.764;2022-08-01T09:54:38;25.60;1.40
2174;DHT22;1093;51.424;11.764;2022-08-01T09:57:11;25.70;1.40
2174;DHT22;1093;51.424;11.764;2022-08-01T09:59:39;25.90;1.40
2174;DHT22;1093;51.424;11.764;2022-08-01T10:02:08;26.10;1.40
2174;DHT22;1093;51.424;11.764;2022-08-01T10:04:38;26.20;1.40
2174;DHT22;1093;51.424;11.764;2022-08-01T10:07:11;26.30;1.40
2174;DHT22;1093;51.424;11.764;2022-08-01T10:09:41;26.40;1.40
2174;DHT22;1093;51.424;11.764;2022-08-01T10:12:08;26.40;1.40
2174;DHT22;1093;51.424;11.764;2022-08-01T10:14:36;26.50;1.40
2174;DHT22;1093;51.424;11.764;2022-08-01T10:17:07;26.50;1.40
2174;DHT22;1093;51.424;11.764;2022-08-01T10:19:35;26.70;1.40
2174;DHT22;1093;51.424;11.764;2022-08-01T10:22:07;26.70;1.40
2174;DHT22;1093;51.424;11.764;2022-08-01T10:24:36;26.70;1.40
2174;DHT22;1093;51.424;11.764;2022-08-01T10:27:05;26.60;1.40
2174;DHT22;1093;51.424;11.764;2022-08-01T10:29:36;26.60;1.40
2174;DHT22;1093;51.424;11.764;2022-08-01T10:32:04;26.60;1.40
2174;DHT22;1093;51.424;11.764;2022-08-01T10:34:32;26.50;1.40
2174;DHT22;1093;51.424;11.764;2022-08-01T10:37:00;26.40;1.40
2174;DHT22;1093;51.424;11.764;2022-08-01T10:39:28;26.30;1.40
2174;DHT22;1093;51.424;11.764;2022-08-01T10:41:56;26.30;1.40
2174;DHT22;1093;51.424;11.764;2022-08-01T10:44:24;26.40;1.40
2174;DHT22;1093;51.424;11.764;2022-08-01T10:46:59;26.40;1.40
2174;DHT22;1093;51.424;11.764;2022-08-01T10:49:31;26.40;1.40
2174;DHT22;1093;51.424;11.764;2022-08-01T10:52:00;26.40;1.40
2174;DHT22;1093;51.424;11.764;2022-08-01T10:54:28;26.50;1.40
2174;DHT22;1093;51.424;11.764;2022-08-01T10:56:59;26.40;1.40
2174;DHT22;1093;51.424;11.764;2022-08-01T10:59:28;26.40;1.40
2174;DHT22;1093;51.424;11.764;2022-08-01T11:01:56;26.40;1.40
2174;DHT22;1093;51.424;11.764;2022-08-01T11:04:34;26.40;1.40
2174;DHT22;1093;51.424;11.764;2022-08-01T11:07:07;26.30;1.40
2174;DHT22;1093;51.424;11.764;2022-08-01T11:09:43;26.30;1.40
2174;DHT22;1093;51.424;11.764;2022-08-01T11:12:13;26.30;1.40
2174;DHT22;1093;51.424;11.764;2022-08-01T11:15:18;26.30;1.40
2174;DHT22;1093;51.424;11.764;2022-08-01T11:17:51;26.40;1.40
2174;DHT22;1093;51.424;11.764;2022-08-01T11:20:20;26.30;1.40
2174;DHT22;1093;51.424;11.764;2022-08-01T11:26:21;26.40;1.40
2174;DHT22;1093;51.424;11.764;2022-08-01T11:29:13;26.30;1.40
2174;DHT22;1093;51.424;11.764;2022-08-01T11:31:40;26.20;1.40
2174;DHT22;1093;51.424;11.764;2022-08-01T11:34:07;26.10;1.40
2174;DHT22;1093;51.424;11.764;2022-08-01T11:36:35;26.10;1.40
2174;DHT22;1093;51.424;11.764;2022-08-01T11:39:17;26.00;1.40
2174;DHT22;1093;51.424;11.764;2022-08-01T11:41:47;25.80;1.40
2174;DHT22;1093;51.424;11.764;2022-08-01T11:44:22;25.80;1.40
2174;DHT22;1093;51.424;11.764;2022-08-01T11:46:56;25.90;1.40
2174;DHT22;1093;51.424;11.764;2022-08-01T11:49:46;25.90;1.40
2174;DHT22;1093;51.424;11.764;2022-08-01T11:52:17;26.10;1.40
2174;DHT22;1093;51.424;11.764;2022-08-01T11:54:48;26.20;1.40
2174;DHT22;1093;51.424;11.764;2022-08-01T11:57:18;26.20;1.40
2174;DHT22;1093;51.424;11.764;2022-08-01T11:59:46;26.30;1.40
2174;DHT22;1093;51.424;11.764;2022-08-01T12:02:16;26.20;1.40
2174;DHT22;1093;51.424;11.764;2022-08-01T12:05:02;26.30;1.40
2174;DHT22;1093;51.424;11.764;2022-08-01T12:07:31;26.40;1.40
2174;DHT22;1093;51.424;11.764;2022-08-01T12:10:01;26.50;1.40
2174;DHT22;1093;51.424;11.764;2022-08-01T12:12:31;26.50;1.40
2174;DHT22;1093;51.424;11.764;2022-08-01T12:14:59;26.40;1.40
2174;DHT22;1093;51.424;11.764;2022-08-01T12:17:31;26.40;1.40
2174;DHT22;1093;51.424;11.764;2022-08-01T12:19:59;26.40;1.40
2174;DHT22;1093;51.424;11.764;2022-08-01T12:22:25;26.50;1.40
2174;DHT22;1093;51.424;11.764;2022-08-01T12:24:52;26.60;1.40
2174;DHT22;1093;51.424;11.764;2022-08-01T12:27:27;26.60;1.40
2174;DHT22;1093;51.424;11.764;2022-08-01T12:29:56;26.60;1.40
2174;DHT22;1093;51.424;11.764;2022-08-01T12:32:26;26.60;1.40
2174;DHT22;1093;51.424;11.764;2022-08-01T12:34:54;26.50;1.40
2174;DHT22;1093;51.424;11.764;2022-08-01T12:37:23;26.50;1.40
2174;DHT22;1093;51.424;11.764;2022-08-01T12:39:50;26.50;1.40
2174;DHT22;1093;51.424;11.764;2022-08-01T12:42:17;26.50;1.40
2174;DHT22;1093;51.424;11.764;2022-08-01T12:44:46;26.40;1.40
2174;DHT22;1093;51.424;11.764;2022-08-01T12:47:15;26.20;1.40
2174;DHT22;1093;51.424;11.764;2022-08-01T12:49:43;26.10;1.40
2174;DHT22;1093;51.424;11.764;2022-08-01T12:52:12;26.00;1.40
2174;DHT22;1093;51.424;11.764;2022-08-01T12:55:04;25.90;1.40
2174;DHT22;1093;51.424;11.764;2022-08-01T12:57:32;25.60;1.40
2174;DHT22;1093;51.424;11.764;2022-08-01T13:00:10;25.40;1.40
2174;DHT22;1093;51.424;11.764;2022-08-01T13:02:39;25.10;1.40
2174;DHT22;1093;51.424;11.764;2022-08-01T13:05:08;24.90;1.40
2174;DHT22;1093;51.424;11.764;2022-08-01T13:07:41;24.80;1.40
2174;DHT22;1093;51.424;11.764;2022-08-01T13:10:09;24.70;1.40
2174;DHT22;1093;51.424;11.764;2022-08-01T13:12:37;24.50;1.40
2174;DHT22;1093;51.424;11.764;2022-08-01T13:15:24;24.50;1.40
2174;DHT22;1093;51.424;11.764;2022-08-01T13:17:53;24.30;1.40
2174;DHT22;1093;51.424;11.764;2022-08-01T13:20:29;24.30;1.40
2174;DHT22;1093;51.424;11.764;2022-08-01T13:23:10;24.30;1.40
2174;DHT22;1093;51.424;11.764;2022-08-01T13:25:47;24.40;1.40
2174;DHT22;1093;51.424;11.764;2022-08-01T13:28:14;24.40;1.40
2174;DHT22;1093;51.424;11.764;2022-08-01T13:30:51;24.50;1.40
2174;DHT22;1093;51.424;11.764;2022-08-01T13:33:19;24.60;1.40
2174;DHT22;1093;51.424;11.764;2022-08-01T13:35:46;24.60;1.40
2174;DHT22;1093;51.424;11.764;2022-08-01T13:38:13;24.50;1.40
2174;DHT22;1093;51.424;11.764;2022-08-01T13:40:39;24.70;1.40
2174;DHT22;1093;51.424;11.764;2022-08-01T13:43:06;24.70;1.40
2174;DHT22;1093;51.424;11.764;2022-08-01T13:45:34;24.90;1.40
2174;DHT22;1093;51.424;11.764;2022-08-01T13:48:01;24.90;1.40
2174;DHT22;1093;51.424;11.764;2022-08-01T13:50:29;25.00;1.40
2174;DHT22;1093;51.424;11.764;2022-08-01T13:52:55;25.10;1.40
2174;DHT22;1093;51.424;11.764;2022-08-01T13:55:22;25.20;1.40
2174;DHT22;1093;51.424;11.764;2022-08-01T13:57:49;25.30;1.40
2174;DHT22;1093;51.424;11.764;2022-08-01T14:00:16;25.30;1.40
2174;DHT22;1093;51.424;11.764;2022-08-01T14:02:43;25.30;1.40
2174;DHT22;1093;51.424;11.764;2022-08-01T14:05:09;25.40;1.40
2174;DHT22;1093;51.424;11.764;2022-08-01T14:07:38;25.50;1.40
2174;DHT22;1093;51.424;11.764;2022-08-01T14:10:05;25.60;1.40
2174;DHT22;1093;51.424;11.764;2022-08-01T14:12:32;25.70;1.40
2174;DHT22;1093;51.424;11.764;2022-08-01T14:14:58;25.70;1.40
2174;DHT22;1093;51.424;11.764;2022-08-01T14:17:25;25.80;1.40
2174;DHT22;1093;51.424;11.764;2022-08-01T14:19:52;26.00;1.40
2174;DHT22;1093;51.424;11.764;2022-08-01T14:22:19;26.10;1.40
2174;DHT22;1093;51.424;11.764;2022-08-01T14:24:47;26.20;1.40
2174;DHT22;1093;51.424;11.764;2022-08-01T14:27:14;26.30;1.40
2174;DHT22;1093;51.424;11.764;2022-08-01T14:29:41;26.50;1.40
2174;DHT22;1093;51.424;11.764;2022-08-01T14:32:07;26.60;1.40
2174;DHT22;1093;51.424;11.764;2022-08-01T14:34:34;26.60;1.40
2174;DHT22;1093;51.424;11.764;2022-08-01T14:37:01;26.70;1.40
2174;DHT22;1093;51.424;11.764;2022-08-01T14:39:27;26.80;1.40
2174;DHT22;1093;51.424;11.764;2022-08-01T14:41:56;27.00;1.40
2174;DHT22;1093;51.424;11.764;2022-08-01T14:44:22;27.00;1.40
2174;DHT22;1093;51.424;11.764;2022-08-01T14:46:49;27.10;1.40
2174;DHT22;1093;51.424;11.764;2022-08-01T14:49:16;27.10;1.40
2174;DHT22;1093;51.424;11.764;2022-08-01T14:51:43;27.10;1.40
2174;DHT22;1093;51.424;11.764;2022-08-01T14:54:09;27.10;1.40
2174;DHT22;1093;51.424;11.764;2022-08-01T14:56:36;27.30;1.40
2174;DHT22;1093;51.424;11.764;2022-08-01T14:59:04;27.40;1.40
2174;DHT22;1093;51.424;11.764;2022-08-01T15:01:31;27.40;1.40
2174;DHT22;1093;51.424;11.764;2022-08-01T15:03:58;27.50;1.40
2174;DHT22;1093;51.424;11.764;2022-08-01T15:06:24;27.50;1.40
2174;DHT22;1093;51.424;11.764;2022-08-01T15:08:51;27.70;1.40
2174;DHT22;1093;51.424;11.764;2022-08-01T15:11:18;27.60;1.40
2174;DHT22;1093;51.424;11.764;2022-08-01T15:13:44;27.70;1.40
2174;DHT22;1093;51.424;11.764;2022-08-01T15:16:33;27.80;1.40
2174;DHT22;1093;51.424;11.764;2022-08-01T15:18:59;27.80;1.40
2174;DHT22;1093;51.424;11.764;2022-08-01T15:21:26;27.70;1.40
2174;DHT22;1093;51.424;11.764;2022-08-01T15:23:53;27.60;1.40
2174;DHT22;1093;51.424;11.764;2022-08-01T15:26:19;27.50;1.40
2174;DHT22;1093;51.424;11.764;2022-08-01T15:28:46;27.60;1.40
2174;DHT22;1093;51.424;11.764;2022-08-01T15:31:13;27.50;1.40
2174;DHT22;1093;51.424;11.764;2022-08-01T15:33:41;27.60;1.40
2174;DHT22;1093;51.424;11.764;2022-08-01T15:36:08;27.70;1.40
2174;DHT22;1093;51.424;11.764;2022-08-01T15:38:34;27.70;1.40
2174;DHT22;1093;51.424;11.764;2022-08-01T15:41:01;27.70;1.40
2174;DHT22;1093;51.424;11.764;2022-08-01T15:43:28;27.80;1.40
2174;DHT22;1093;51.424;11.764;2022-08-01T15:45:55;27.70;1.40
2174;DHT22;1093;51.424;11.764;2022-08-01T15:48:23;27.60;1.40
2174;DHT22;1093;51.424;11.764;2022-08-01T15:50:52;27.70;1.40
2174;DHT22;1093;51.424;11.764;2022-08-01T15:53:19;27.70;1.40
2174;DHT22;1093;51.424;11.764;2022-08-01T15:55:45;27.70;1.40
2174;DHT22;1093;51.424;11.764;2022-08-01T15:58:12;27.70;1.40
2174;DHT22;1093;51.424;11.764;2022-08-01T16:00:39;27.70;1.40
2174;DHT22;1093;51.424;11.764;2022-08-01T16:03:06;27.70;1.40
2174;DHT22;1093;51.424;11.764;2022-08-01T16:05:34;27.60;1.40
2174;DHT22;1093;51.424;11.764;2022-08-01T16:08:03;27.40;1.40
2174;DHT22;1093;51.424;11.764;2022-08-01T16:10:30;27.40;1.40
2174;DHT22;1093;51.424;11.764;2022-08-01T16:12:57;27.40;1.40
2174;DHT22;1093;51.424;11.764;2022-08-01T16:15:23;27.30;1.40
2174;DHT22;1093;51.424;11.764;2022-08-01T16:17:50;27.40;1.40